Flugplatz Hünsborn

Für EDKH sind keine METAR/TAF Berichte vorhanden.
Es werden die Flugwettermeldungen vom Flugplatz Siegerland in 27 km Entfernung angezeigt.

Bericht für EDGS

vom 31.05. um 10:20 UTC

Wind 15 kt aus 60°

Sichtweite 10 km oder mehr

gering bewölkt in 4400 ft

Temperatur 14.0°C

Taupunkt 4.0°C

Luftfeuchtigkeit 51%

Luftdruck 1022 hPa

EDGS 311020Z 06015KT 9999 FEW044 14/04 Q1022

Prognose für EDGS

vom 31.05. um 08:00 UTC

Zwischen 09:00 UTC und 18:00 UTC

Wind 13 kt aus 70°

Sichtweite 10 km oder mehr

keine signifikanten Wettererscheinungen

keine Wolken

TAF EDGS 310800Z 3109/3118 07013KT CAVOK
Impressum